Alexander, North Dakota
Current Conditions -  °F | °C
As of 9:52 AM on Saturday 25 Oct 2014 (Local Time) from KISN Reporting Station
Clear Clear  
Wind Chill: 43°   Ceiling: Unl
Heat Index: 43°   Visibility: 10mi
Dew Point: 33°   Wind: 0mph
Humidity: 68%   Direction: NA
Pressure: 30.13"   Gusts: NA
Location:  47.84°N, 103.64°W
Report Text: KISN 251452Z AUTO 00000KT 10SM CLR 06/01 A3013 RMK AO2 SLP218 T00610006 50008
Loading
Personal Weather Stations






























Interactive Weather Map New forecast layout! Learn more

10-Day Weather Forecast

Advertisements
Track Severe Weather on mobile